Nambe, New Mexico
Current Conditions -  °F | °C
As of 7:53 AM on Saturday 25 Oct 2014 (Local Time) from KSAF Reporting Station
Clear Clear  
Wind Chill: 39°   Ceiling: Unl
Heat Index: 46°   Visibility: 10mi
Dew Point: 23°   Wind: 16mph
Humidity: 40%   Direction: 360°N
Pressure: 30.34"   Gusts: NA
Location:  35.7017°N, 105.921°W
Report Text: KSAF 251353Z AUTO 36014KT 10SM CLR 08/M05 A3034 RMK AO2 SLP214 T00781050
Loading
Personal Weather Stations






























Interactive Weather Map
Tropical Storm Tracking
New forecast layout! Learn more

10-Day Weather Forecast

Advertisements
Track Severe Weather on mobile